createdAt,value
2023-12-09T00:05:08.833Z,3.99
2023-12-09T00:10:31.852Z,4.02
2023-12-09T00:15:56.122Z,3.91
2023-12-09T00:21:19.112Z,3.92
2023-12-09T00:26:42.018Z,2.83
2023-12-09T00:32:07.199Z,3.46
2023-12-09T00:37:30.051Z,4.16
2023-12-09T00:42:52.944Z,4.15
2023-12-09T00:48:17.270Z,3.67
2023-12-09T00:53:40.177Z,3.59
2023-12-09T00:59:03.516Z,3.94
2023-12-09T01:04:27.773Z,4.07
2023-12-09T01:09:50.685Z,3.94
2023-12-09T01:15:14.111Z,3.03
2023-12-09T01:20:38.472Z,3.80
2023-12-09T01:26:01.338Z,4.36
2023-12-09T01:31:24.194Z,4.58
2023-12-09T01:36:48.425Z,3.18
2023-12-09T01:42:11.601Z,3.61
2023-12-09T01:47:36.489Z,3.99
2023-12-09T01:53:01.220Z,4.68
2023-12-09T01:58:24.103Z,2.92
2023-12-09T02:03:47.275Z,3.22
2023-12-09T02:09:12.507Z,2.97
2023-12-09T02:14:41.942Z,2.41
2023-12-09T02:20:06.850Z,3.05
2023-12-09T02:25:31.077Z,2.59
2023-12-09T02:30:57.936Z,2.61
2023-12-09T02:36:24.017Z,3.59
2023-12-09T02:41:48.483Z,3.11
2023-12-09T02:47:13.906Z,3.17
2023-12-09T02:52:37.354Z,2.77
2023-12-09T02:58:01.720Z,2.75
2023-12-09T03:03:24.679Z,2.74
2023-12-09T03:08:47.496Z,3.16
2023-12-09T03:14:11.687Z,3.35
2023-12-09T03:19:34.727Z,3.46
2023-12-09T03:24:57.658Z,3.76
2023-12-09T03:30:22.283Z,3.95
2023-12-09T03:35:45.177Z,4.56
2023-12-09T03:41:09.017Z,4.45
2023-12-09T03:46:34.113Z,4.20
2023-12-09T03:51:57.065Z,3.90
2023-12-09T03:57:20.213Z,4.15
2023-12-09T04:02:44.556Z,4.45
2023-12-09T04:08:07.464Z,4.17
2023-12-09T04:13:30.314Z,4.49
2023-12-09T04:18:54.651Z,4.34
2023-12-09T04:24:18.543Z,4.55
2023-12-09T04:29:41.382Z,4.40
2023-12-09T04:35:06.612Z,4.48
2023-12-09T04:40:29.466Z,4.38
2023-12-09T04:45:53.377Z,3.51
2023-12-09T04:51:18.143Z,3.50
2023-12-09T04:56:40.978Z,3.20
2023-12-09T05:02:04.088Z,3.70
2023-12-09T05:07:29.418Z,4.15
2023-12-09T05:12:52.351Z,4.39
2023-12-09T05:18:15.267Z,4.39
2023-12-09T05:23:39.546Z,4.58
2023-12-09T05:29:02.386Z,4.58
2023-12-09T05:34:25.279Z,4.34
2023-12-09T05:39:49.471Z,4.73
2023-12-09T05:45:12.864Z,5.08
2023-12-09T05:50:35.695Z,4.98
2023-12-09T05:55:59.874Z,4.84
2023-12-09T06:01:22.755Z,4.92
2023-12-09T06:06:45.680Z,4.70
2023-12-09T06:12:10.269Z,4.81
2023-12-09T06:17:33.485Z,4.74
2023-12-09T06:22:56.364Z,4.38
2023-12-09T06:28:20.543Z,4.81
2023-12-09T06:33:43.577Z,4.93
2023-12-09T06:39:06.740Z,5.09
2023-12-09T06:44:30.993Z,4.84
2023-12-09T06:49:53.902Z,4.93
2023-12-09T06:55:19.417Z,4.45
2023-12-09T07:00:44.326Z,4.21
2023-12-09T07:06:07.689Z,4.56
2023-12-09T07:11:30.619Z,4.80
2023-12-09T07:16:54.806Z,4.38
2023-12-09T07:22:17.683Z,4.45
2023-12-09T07:27:40.670Z,4.82
2023-12-09T07:33:05.156Z,4.93
2023-12-09T07:38:28.156Z,5.34
2023-12-09T07:43:50.940Z,5.22
2023-12-09T07:49:15.499Z,5.73
2023-12-09T07:54:38.462Z,5.56
2023-12-09T08:00:02.576Z,5.46
2023-12-09T08:05:27.325Z,5.58
2023-12-09T08:10:50.376Z,5.69
2023-12-09T08:16:14.409Z,5.66
2023-12-09T08:21:39.041Z,6.00
2023-12-09T08:27:01.969Z,5.58
2023-12-09T08:32:25.913Z,5.45
2023-12-09T08:37:50.312Z,5.45
2023-12-09T08:43:13.317Z,5.25
2023-12-09T08:48:36.497Z,5.52
2023-12-09T08:54:01.374Z,5.42
2023-12-09T08:59:24.232Z,5.66
2023-12-09T09:04:47.366Z,5.76
2023-12-09T09:10:11.796Z,6.36
2023-12-09T09:15:34.737Z,6.66
2023-12-09T09:20:58.171Z,6.47
2023-12-09T09:26:22.959Z,6.71
2023-12-09T09:31:45.831Z,7.00
2023-12-09T09:37:09.269Z,6.94
2023-12-09T09:42:39.220Z,6.65
2023-12-09T09:48:06.485Z,7.27
2023-12-09T09:53:36.443Z,7.43
2023-12-09T09:59:00.674Z,7.81
2023-12-09T10:04:23.647Z,7.84
2023-12-09T10:09:46.939Z,8.46
2023-12-09T10:15:12.614Z,10.07
2023-12-09T10:20:37.091Z,9.74
2023-12-09T10:26:00.228Z,9.67
2023-12-09T10:31:24.559Z,10.20
2023-12-09T10:36:47.645Z,9.44
2023-12-09T10:42:10.895Z,9.52
2023-12-09T10:47:35.212Z,8.94
2023-12-09T10:52:58.294Z,9.22
2023-12-09T10:58:22.820Z,8.11
2023-12-09T11:03:48.044Z,7.60
2023-12-09T11:09:14.343Z,7.64
2023-12-09T11:14:39.495Z,8.06
2023-12-09T11:20:11.097Z,7.89
2023-12-09T11:25:34.291Z,8.13
2023-12-09T11:30:58.249Z,7.66
2023-12-09T11:36:25.019Z,8.19
2023-12-09T11:41:54.212Z,8.53
2023-12-09T11:47:19.187Z,11.31
2023-12-09T11:52:45.097Z,14.01
2023-12-09T11:58:07.951Z,14.03
2023-12-09T12:03:30.890Z,14.63
2023-12-09T12:08:55.975Z,14.25
2023-12-09T12:14:18.889Z,14.71
2023-12-09T12:19:42.038Z,17.42
2023-12-09T12:25:09.368Z,16.25
2023-12-09T12:30:33.604Z,16.85
2023-12-09T12:35:57.297Z,15.04
2023-12-09T12:41:21.506Z,15.81
2023-12-09T12:46:44.349Z,16.94
2023-12-09T12:52:07.881Z,15.59
2023-12-09T12:57:32.664Z,12.60
2023-12-09T13:02:55.561Z,12.05
2023-12-09T13:08:18.592Z,10.78
2023-12-09T13:13:42.793Z,10.83
2023-12-09T13:19:05.781Z,9.52
2023-12-09T13:24:29.320Z,9.12
2023-12-09T13:29:53.899Z,9.32
2023-12-09T13:35:17.051Z,8.73
2023-12-09T13:40:46.110Z,8.84
2023-12-09T13:46:10.347Z,7.96
2023-12-09T13:51:33.656Z,8.26
2023-12-09T13:56:58.618Z,9.48
2023-12-09T14:02:23.445Z,9.08
2023-12-09T14:07:47.028Z,8.28
2023-12-09T14:13:09.855Z,8.35
2023-12-09T14:18:34.128Z,7.27
2023-12-09T14:23:57.268Z,7.37
2023-12-09T14:29:20.278Z,7.75
2023-12-09T14:34:44.695Z,7.88
2023-12-09T14:40:09.362Z,7.61
2023-12-09T14:45:32.261Z,6.69
2023-12-09T14:50:56.431Z,6.83
2023-12-09T14:56:19.327Z,6.80
2023-12-09T15:01:42.269Z,6.18
2023-12-09T15:07:07.378Z,5.88
2023-12-09T15:12:30.562Z,5.72
2023-12-09T15:17:53.716Z,5.29
2023-12-09T15:23:17.911Z,5.28
2023-12-09T15:28:40.798Z,4.81
2023-12-09T15:34:04.075Z,4.80
2023-12-09T15:39:28.371Z,4.65
2023-12-09T15:44:51.169Z,5.55
2023-12-09T15:50:14.076Z,5.53
2023-12-09T15:55:38.237Z,5.19
2023-12-09T16:01:01.153Z,5.22
2023-12-09T16:06:24.224Z,5.71
2023-12-09T16:11:48.599Z,5.70
2023-12-09T16:17:12.018Z,5.66
2023-12-09T16:22:35.162Z,5.17
2023-12-09T16:27:59.326Z,5.58
2023-12-09T16:33:22.454Z,6.18
2023-12-09T16:38:47.137Z,4.87
2023-12-09T16:44:11.869Z,4.99
2023-12-09T16:49:34.859Z,5.49
2023-12-09T16:54:57.896Z,5.30
2023-12-09T17:00:22.300Z,5.49
2023-12-09T17:05:45.187Z,5.74
2023-12-09T17:11:08.109Z,5.69
2023-12-09T17:16:32.421Z,5.26
2023-12-09T17:21:55.260Z,5.56
2023-12-09T17:27:20.997Z,5.85
2023-12-09T17:32:48.677Z,5.72
2023-12-09T17:38:11.582Z,5.60
2023-12-09T17:43:34.449Z,5.63
2023-12-09T17:48:58.693Z,5.70
2023-12-09T17:54:21.576Z,5.51
2023-12-09T17:59:44.495Z,5.60
2023-12-09T18:05:09.974Z,5.07
2023-12-09T18:10:33.166Z,5.54
2023-12-09T18:15:56.170Z,4.84
2023-12-09T18:21:20.426Z,5.31
2023-12-09T18:26:43.481Z,5.33
2023-12-09T18:32:10.887Z,5.15
2023-12-09T18:37:35.309Z,5.37
2023-12-09T18:43:00.326Z,5.54
2023-12-09T18:48:27.909Z,5.57
2023-12-09T18:53:52.194Z,5.92
2023-12-09T18:59:17.441Z,5.61
2023-12-09T19:04:42.956Z,5.85
2023-12-09T19:10:08.530Z,5.86
2023-12-09T19:15:31.492Z,5.66
2023-12-09T19:20:54.365Z,5.54
2023-12-09T19:26:18.618Z,5.76
2023-12-09T19:31:41.648Z,5.55
2023-12-09T19:37:05.016Z,5.91
2023-12-09T19:42:29.784Z,5.51
2023-12-09T19:47:55.776Z,5.31
2023-12-09T19:53:19.342Z,5.33
2023-12-09T19:58:43.653Z,5.17
2023-12-09T20:04:06.969Z,5.42
2023-12-09T20:09:29.897Z,5.61
2023-12-09T20:14:54.074Z,5.91
2023-12-09T20:20:17.013Z,5.65
2023-12-09T20:25:39.859Z,5.89
2023-12-09T20:31:05.440Z,5.69
2023-12-09T20:36:28.924Z,5.63
2023-12-09T20:41:51.863Z,5.53
2023-12-09T20:47:16.750Z,5.46
2023-12-09T20:52:39.907Z,5.38
2023-12-09T20:58:02.770Z,5.71
2023-12-09T21:03:27.087Z,5.38
2023-12-09T21:08:49.991Z,5.74
2023-12-09T21:14:12.900Z,5.49
2023-12-09T21:19:37.479Z,6.11
2023-12-09T21:25:00.459Z,5.80
2023-12-09T21:30:23.326Z,6.10
2023-12-09T21:35:47.632Z,5.75
2023-12-09T21:41:10.960Z,6.34
2023-12-09T21:46:33.824Z,6.28
2023-12-09T21:51:58.677Z,6.32
2023-12-09T21:57:21.593Z,6.14
2023-12-09T22:02:44.648Z,5.72
2023-12-09T22:08:08.852Z,5.44
2023-12-09T22:13:33.000Z,5.13
2023-12-09T22:18:55.979Z,4.98
2023-12-09T22:24:20.265Z,5.08
2023-12-09T22:29:43.114Z,5.22
2023-12-09T22:35:06.824Z,5.32
2023-12-09T22:40:31.223Z,5.42
2023-12-09T22:45:54.261Z,5.52
2023-12-09T22:51:18.100Z,5.28
2023-12-09T22:56:42.617Z,5.50
2023-12-09T23:02:07.042Z,5.52
2023-12-09T23:07:29.873Z,4.80
2023-12-09T23:12:54.161Z,5.25
2023-12-09T23:18:17.234Z,5.44
2023-12-09T23:23:40.221Z,5.58
2023-12-09T23:29:04.373Z,4.98
2023-12-09T23:34:27.377Z,5.15
2023-12-09T23:39:50.338Z,4.63
2023-12-09T23:45:14.780Z,4.83
2023-12-09T23:50:37.656Z,5.23
2023-12-09T23:56:03.812Z,4.94
